Gladstone, Illinois
Current Conditions -  °F | °C
As of 9:53 PM on Saturday 25 Oct 2014 (Local Time) from KBRL Reporting Station
Clear Clear  
Wind Chill: 51°   Ceiling: Unl
Heat Index: 51°   Visibility: 10mi
Dew Point: 40°   Wind: 6mph
Humidity: 66%   Direction: 340°NNW
Pressure: 30.04"   Gusts: NA
Location:  40.86°N, 90.96°W
Report Text: KBRL 260253Z AUTO 34005KT 10SM CLR 11/04 A3004 RMK AO2 SLP174 T01060044 51007
Loading
Personal Weather Stations






























Interactive Weather Map
Tropical Storm Tracking
New forecast layout! Learn more

10-Day Weather Forecast

Advertisements
Track Severe Weather on mobile